createdAt,value
2019-03-17T00:00:42.619Z,0.50
2019-03-17T00:03:13.147Z,0.80
2019-03-17T00:05:43.631Z,0.60
2019-03-17T00:08:14.128Z,0.80
2019-03-17T00:10:44.680Z,0.80
2019-03-17T00:13:17.612Z,0.80
2019-03-17T00:15:47.310Z,0.80
2019-03-17T00:18:17.774Z,0.60
2019-03-17T00:20:48.339Z,0.80
2019-03-17T00:23:18.796Z,0.70
2019-03-17T00:25:49.221Z,0.60
2019-03-17T00:28:19.651Z,0.90
2019-03-17T00:30:50.075Z,0.70
2019-03-17T00:33:20.504Z,0.63
2019-03-17T00:35:50.937Z,0.70
2019-03-17T00:38:21.355Z,1.20
2019-03-17T00:40:51.782Z,1.00
2019-03-17T00:43:22.214Z,1.33
2019-03-17T00:45:52.823Z,0.93
2019-03-17T00:48:23.299Z,1.13
2019-03-17T00:50:53.797Z,0.90
2019-03-17T00:53:25.253Z,0.90
2019-03-17T00:55:55.675Z,1.00
2019-03-17T00:58:26.103Z,1.40
2019-03-17T01:00:56.663Z,0.93
2019-03-17T01:03:27.162Z,1.30
2019-03-17T01:05:57.691Z,1.27
2019-03-17T01:08:28.271Z,1.07
2019-03-17T01:10:58.851Z,1.03
2019-03-17T01:13:29.381Z,1.33
2019-03-17T01:16:03.293Z,1.13
2019-03-17T01:18:33.722Z,1.10
2019-03-17T01:21:04.134Z,1.33
2019-03-17T01:23:34.578Z,1.23
2019-03-17T01:26:05.169Z,1.07
2019-03-17T01:28:35.632Z,1.40
2019-03-17T01:31:06.075Z,1.10
2019-03-17T01:33:36.615Z,1.53
2019-03-17T01:36:07.221Z,1.50
2019-03-17T01:38:37.649Z,1.53
2019-03-17T01:41:08.162Z,1.50
2019-03-17T01:43:40.310Z,1.30
2019-03-17T01:46:11.179Z,2.10
2019-03-17T01:48:41.611Z,1.40
2019-03-17T01:51:12.033Z,1.53
2019-03-17T01:53:42.474Z,1.23
2019-03-17T01:56:13.063Z,1.80
2019-03-17T01:58:43.469Z,1.73
2019-03-17T02:01:14.158Z,1.60
2019-03-17T02:03:44.577Z,2.93
2019-03-17T02:06:15.047Z,1.67
2019-03-17T02:08:45.536Z,1.63
2019-03-17T02:11:15.964Z,2.60
2019-03-17T02:13:47.608Z,1.60
2019-03-17T02:16:18.043Z,1.67
2019-03-17T02:18:48.579Z,1.80
2019-03-17T02:21:18.999Z,1.90
2019-03-17T02:23:49.425Z,2.17
2019-03-17T02:26:19.854Z,1.70
2019-03-17T02:28:50.485Z,1.50
2019-03-17T02:31:20.959Z,1.63
2019-03-17T02:33:51.652Z,2.03
2019-03-17T02:36:22.075Z,1.50
2019-03-17T02:38:52.607Z,1.47
2019-03-17T02:41:23.032Z,1.83
2019-03-17T02:43:53.479Z,1.23
2019-03-17T02:46:23.999Z,1.63
2019-03-17T02:48:54.579Z,1.50
2019-03-17T02:51:25.047Z,1.43
2019-03-17T02:53:55.681Z,1.07
2019-03-17T02:56:26.112Z,1.27
2019-03-17T02:58:56.540Z,1.10
2019-03-17T03:01:27.050Z,1.20
2019-03-17T03:03:57.477Z,1.40
2019-03-17T03:06:28.034Z,1.17
2019-03-17T03:08:58.741Z,1.20
2019-03-17T03:11:29.277Z,1.20
2019-03-17T03:13:59.766Z,1.10
2019-03-17T03:16:30.302Z,1.10
2019-03-17T03:19:00.769Z,1.10
2019-03-17T03:21:31.235Z,1.00
2019-03-17T03:24:01.743Z,0.90
2019-03-17T03:26:32.199Z,1.43
2019-03-17T03:29:02.680Z,1.30
2019-03-17T03:31:33.109Z,1.43
2019-03-17T03:34:03.544Z,1.00
2019-03-17T03:36:33.966Z,1.33
2019-03-17T03:39:05.789Z,0.60
2019-03-17T03:41:36.306Z,0.70
2019-03-17T03:44:06.777Z,0.67
2019-03-17T03:46:37.195Z,0.90
2019-03-17T03:49:07.653Z,0.40
2019-03-17T03:51:38.312Z,0.60
2019-03-17T03:54:08.807Z,0.90
2019-03-17T03:56:39.249Z,0.70
2019-03-17T03:59:09.647Z,0.73
2019-03-17T04:01:40.078Z,0.70
2019-03-17T04:04:10.513Z,0.80
2019-03-17T04:06:42.203Z,0.73
2019-03-17T04:09:13.003Z,0.67
2019-03-17T04:11:44.476Z,0.57
2019-03-17T04:14:14.995Z,1.00
2019-03-17T04:16:45.426Z,0.70
2019-03-17T04:19:15.855Z,1.00
2019-03-17T04:21:48.310Z,0.67
2019-03-17T04:24:18.772Z,1.07
2019-03-17T04:26:49.307Z,1.00
2019-03-17T04:29:19.892Z,0.73
2019-03-17T04:31:50.331Z,0.80
2019-03-17T04:34:20.747Z,0.83
2019-03-17T04:36:51.270Z,0.90
2019-03-17T04:39:21.745Z,0.97
2019-03-17T04:41:52.236Z,0.90
2019-03-17T04:44:22.647Z,0.80
2019-03-17T04:46:53.084Z,0.87
2019-03-17T04:49:23.512Z,0.80
2019-03-17T04:51:53.903Z,1.00
2019-03-17T04:54:24.406Z,0.97
2019-03-17T04:56:55.052Z,1.00
2019-03-17T04:59:25.527Z,1.20
2019-03-17T05:01:55.952Z,0.97
2019-03-17T05:04:26.447Z,0.80
2019-03-17T05:06:57.018Z,1.33
2019-03-17T05:09:27.748Z,1.30
2019-03-17T05:11:58.273Z,1.33
2019-03-17T05:14:28.703Z,1.03
2019-03-17T05:16:59.129Z,0.80
2019-03-17T05:19:29.863Z,1.03
2019-03-17T05:22:00.298Z,1.33
2019-03-17T05:24:30.814Z,0.90
2019-03-17T05:27:01.249Z,1.10
2019-03-17T05:29:31.713Z,1.10
2019-03-17T05:32:02.205Z,1.13
2019-03-17T05:34:32.647Z,1.20
2019-03-17T05:37:06.467Z,1.23
2019-03-17T05:39:35.138Z,0.90
2019-03-17T05:42:13.731Z,1.00
2019-03-17T05:44:44.231Z,1.60
2019-03-17T05:47:14.773Z,1.10
2019-03-17T05:49:45.229Z,0.83
2019-03-17T05:52:15.668Z,2.00
2019-03-17T05:54:46.358Z,1.20
2019-03-17T05:57:16.848Z,1.07
2019-03-17T05:59:47.291Z,1.23
2019-03-17T06:02:17.882Z,1.37
2019-03-17T06:04:48.291Z,1.13
2019-03-17T06:07:19.226Z,1.57
2019-03-17T06:09:49.885Z,1.77
2019-03-17T06:12:20.411Z,1.00
2019-03-17T06:14:50.832Z,1.47
2019-03-17T06:17:21.255Z,0.97
2019-03-17T06:19:51.671Z,1.10
2019-03-17T06:22:22.327Z,1.17
2019-03-17T06:24:52.769Z,1.37
2019-03-17T06:27:23.343Z,1.30
2019-03-17T06:29:53.788Z,1.50
2019-03-17T06:32:24.276Z,1.10
2019-03-17T06:34:54.655Z,1.43
2019-03-17T06:37:30.870Z,1.50
2019-03-17T06:39:57.353Z,1.60
2019-03-17T06:42:28.843Z,1.30
2019-03-17T06:44:59.330Z,1.53
2019-03-17T06:47:29.757Z,1.47
2019-03-17T06:50:00.360Z,1.30
2019-03-17T06:52:30.818Z,1.00
2019-03-17T06:55:01.294Z,1.10
2019-03-17T06:57:31.981Z,1.17
2019-03-17T07:00:02.409Z,0.90
2019-03-17T07:02:34.003Z,1.00
2019-03-17T07:05:04.535Z,1.47
2019-03-17T07:07:43.786Z,0.90
2019-03-17T07:10:08.109Z,1.43
2019-03-17T07:12:38.537Z,0.97
2019-03-17T07:15:09.125Z,1.07
2019-03-17T07:17:40.105Z,0.73
2019-03-17T07:20:11.006Z,0.60
2019-03-17T07:22:41.459Z,1.10
2019-03-17T07:25:12.000Z,0.90
2019-03-17T07:27:42.527Z,0.90
2019-03-17T07:30:13.883Z,0.90
2019-03-17T07:32:44.306Z,0.80
2019-03-17T07:35:14.780Z,1.33
2019-03-17T07:37:56.068Z,1.00
2019-03-17T07:40:17.651Z,0.97
2019-03-17T07:42:49.132Z,1.13
2019-03-17T07:45:19.615Z,0.90
2019-03-17T07:47:50.043Z,1.10
2019-03-17T07:50:20.574Z,1.13
2019-03-17T07:52:51.104Z,1.27
2019-03-17T07:55:21.837Z,0.90
2019-03-17T07:57:52.267Z,1.30
2019-03-17T08:00:31.841Z,0.87
2019-03-17T08:02:54.855Z,0.90
2019-03-17T08:05:25.519Z,0.70
2019-03-17T08:08:08.223Z,0.90
2019-03-17T08:10:29.318Z,1.30
2019-03-17T08:12:59.738Z,1.30
2019-03-17T08:15:53.002Z,1.40
2019-03-17T08:18:23.709Z,1.40
2019-03-17T08:20:54.170Z,1.07
2019-03-17T08:23:25.727Z,1.00
2019-03-17T08:25:56.142Z,0.90
2019-03-17T08:28:26.640Z,0.97
2019-03-17T08:30:57.204Z,1.10
2019-03-17T08:33:27.670Z,1.30
2019-03-17T08:35:58.781Z,1.23
2019-03-17T08:38:29.200Z,1.03
2019-03-17T08:40:59.638Z,1.57
2019-03-17T08:43:30.162Z,0.90
2019-03-17T08:46:00.590Z,1.17
2019-03-17T08:48:31.060Z,1.30
2019-03-17T08:51:01.538Z,1.03
2019-03-17T08:53:31.968Z,0.90
2019-03-17T08:56:02.600Z,1.07
2019-03-17T08:58:33.027Z,1.20
2019-03-17T09:01:03.456Z,1.10
2019-03-17T09:03:34.909Z,1.20
2019-03-17T09:06:05.498Z,1.30
2019-03-17T09:08:36.003Z,1.10
2019-03-17T09:11:06.535Z,1.30
2019-03-17T09:13:37.124Z,1.13
2019-03-17T09:16:07.724Z,0.87
2019-03-17T09:18:38.890Z,1.10
2019-03-17T09:21:09.695Z,1.40
2019-03-17T09:23:42.687Z,1.13
2019-03-17T09:26:12.948Z,1.00
2019-03-17T09:28:44.110Z,1.00
2019-03-17T09:31:14.992Z,0.93
2019-03-17T09:33:45.888Z,1.30
2019-03-17T09:36:16.324Z,0.90
2019-03-17T09:38:47.782Z,0.87
2019-03-17T09:41:18.271Z,0.70
2019-03-17T09:43:48.700Z,0.80
2019-03-17T09:46:19.123Z,1.00
2019-03-17T09:48:49.557Z,0.93
2019-03-17T09:51:23.156Z,1.17
2019-03-17T09:53:53.594Z,0.97
2019-03-17T09:56:24.117Z,1.10
2019-03-17T09:58:54.534Z,1.00
2019-03-17T10:01:25.067Z,1.10
2019-03-17T10:03:55.464Z,0.90
2019-03-17T10:06:26.124Z,1.57
2019-03-17T10:09:00.337Z,1.23
2019-03-17T10:11:29.171Z,1.40
2019-03-17T10:13:59.660Z,1.40
2019-03-17T10:16:30.090Z,1.10
2019-03-17T10:19:00.534Z,1.13
2019-03-17T10:21:30.899Z,1.13
2019-03-17T10:24:01.475Z,1.20
2019-03-17T10:26:31.897Z,1.00
2019-03-17T10:29:02.322Z,1.10
2019-03-17T10:31:32.751Z,1.02
2019-03-17T10:34:03.351Z,1.00
2019-03-17T10:36:33.839Z,1.20
2019-03-17T10:39:12.388Z,1.10
2019-03-17T10:41:37.582Z,1.40
2019-03-17T10:44:08.062Z,1.25
2019-03-17T10:46:38.485Z,0.90
2019-03-17T10:49:08.918Z,1.10
2019-03-17T10:51:39.453Z,1.03
2019-03-17T10:54:09.875Z,1.20
2019-03-17T10:56:40.296Z,0.80
2019-03-17T10:59:10.931Z,1.00
2019-03-17T11:01:41.561Z,1.10
2019-03-17T11:04:11.988Z,0.80
2019-03-17T11:06:42.461Z,0.80
2019-03-17T11:09:24.386Z,1.00
2019-03-17T11:11:45.236Z,1.00
2019-03-17T11:14:15.886Z,0.90
2019-03-17T11:16:46.379Z,0.60
2019-03-17T11:19:16.802Z,0.90
2019-03-17T11:21:47.535Z,0.90
2019-03-17T11:24:18.069Z,1.10
2019-03-17T11:26:48.568Z,1.17
2019-03-17T11:29:19.195Z,1.13
2019-03-17T11:31:49.929Z,1.00
2019-03-17T11:34:20.606Z,1.00
2019-03-17T11:36:51.034Z,1.10
2019-03-17T11:39:21.457Z,1.97
2019-03-17T11:41:52.900Z,1.07
2019-03-17T11:44:23.472Z,1.02
2019-03-17T11:46:53.956Z,0.87
2019-03-17T11:49:24.382Z,0.77
2019-03-17T11:51:54.855Z,0.80
2019-03-17T11:54:25.406Z,0.60
2019-03-17T11:56:56.038Z,0.80
2019-03-17T11:59:26.503Z,0.50
2019-03-17T12:01:57.031Z,0.50
2019-03-17T12:04:27.498Z,0.40
2019-03-17T12:06:58.042Z,0.50
2019-03-17T12:09:29.666Z,0.40
2019-03-17T12:12:00.631Z,0.70
2019-03-17T12:14:31.329Z,0.40
2019-03-17T12:17:01.740Z,0.40
2019-03-17T12:19:32.920Z,0.50
2019-03-17T12:22:09.282Z,0.60
2019-03-17T12:24:38.655Z,0.60
2019-03-17T12:27:09.091Z,0.80
2019-03-17T12:29:39.680Z,0.40
2019-03-17T12:32:10.330Z,0.60
2019-03-17T12:34:40.770Z,0.60
2019-03-17T12:37:11.199Z,1.10
2019-03-17T12:39:41.830Z,0.90
2019-03-17T12:42:12.399Z,0.80
2019-03-17T12:44:42.904Z,0.47
2019-03-17T12:47:13.463Z,0.60
2019-03-17T12:49:43.947Z,0.83
2019-03-17T12:52:14.477Z,0.60
2019-03-17T12:54:44.914Z,0.87
2019-03-17T12:57:16.464Z,0.50
2019-03-17T12:59:46.875Z,0.63
2019-03-17T13:02:17.303Z,0.60
2019-03-17T13:04:47.740Z,0.70
2019-03-17T13:07:18.156Z,0.93
2019-03-17T13:09:48.620Z,0.97
2019-03-17T13:12:19.301Z,0.60
2019-03-17T13:14:49.911Z,0.80
2019-03-17T13:17:20.431Z,0.47
2019-03-17T13:19:50.915Z,0.50
2019-03-17T13:22:21.510Z,0.73
2019-03-17T13:24:52.025Z,0.63
2019-03-17T13:27:22.579Z,0.50
2019-03-17T13:29:53.033Z,0.70
2019-03-17T13:32:23.465Z,0.57
2019-03-17T13:34:53.890Z,0.87
2019-03-17T13:37:24.312Z,0.67
2019-03-17T13:39:54.742Z,1.00
2019-03-17T13:42:25.167Z,0.90
2019-03-17T13:44:55.596Z,1.17
2019-03-17T13:47:26.010Z,0.90
2019-03-17T13:49:56.598Z,1.07
2019-03-17T13:52:27.130Z,1.10
2019-03-17T13:54:57.715Z,0.80
2019-03-17T13:57:28.136Z,1.00
2019-03-17T13:59:58.565Z,0.80
2019-03-17T14:02:28.983Z,0.90
2019-03-17T14:04:59.411Z,1.03
2019-03-17T14:07:30.028Z,0.90
2019-03-17T14:10:12.739Z,0.80
2019-03-17T14:12:32.872Z,0.90
2019-03-17T14:15:03.730Z,1.10
2019-03-17T14:17:34.218Z,0.90
2019-03-17T14:20:05.086Z,1.00
2019-03-17T14:22:35.686Z,0.80
2019-03-17T14:25:07.615Z,1.17
2019-03-17T14:27:38.076Z,0.90
2019-03-17T14:30:10.505Z,0.87
2019-03-17T14:32:40.975Z,0.73
2019-03-17T14:35:11.609Z,1.20
2019-03-17T14:37:42.240Z,0.80
2019-03-17T14:40:13.700Z,0.93
2019-03-17T14:42:44.370Z,0.93
2019-03-17T14:45:15.530Z,1.13
2019-03-17T14:47:46.309Z,1.00
2019-03-17T14:50:17.911Z,1.23
2019-03-17T14:52:48.536Z,0.80
2019-03-17T14:55:19.317Z,1.20
2019-03-17T14:57:49.779Z,1.10
2019-03-17T15:00:20.594Z,1.27
2019-03-17T15:02:52.143Z,1.37
2019-03-17T15:05:25.199Z,1.20
2019-03-17T15:07:56.355Z,0.90
2019-03-17T15:10:28.599Z,0.97
2019-03-17T15:13:00.999Z,1.17
2019-03-17T15:15:33.180Z,0.97
2019-03-17T15:18:03.820Z,1.50
2019-03-17T15:20:34.252Z,0.90
2019-03-17T15:23:04.843Z,1.00
2019-03-17T15:25:35.332Z,1.00
2019-03-17T15:28:06.098Z,1.47
2019-03-17T15:30:36.576Z,1.10
2019-03-17T15:33:08.328Z,1.27
2019-03-17T15:35:38.855Z,1.20
2019-03-17T15:38:09.496Z,1.50
2019-03-17T15:40:40.118Z,1.33
2019-03-17T15:43:10.546Z,1.20
2019-03-17T15:45:40.973Z,0.77
2019-03-17T15:48:11.411Z,1.00
2019-03-17T15:50:41.876Z,0.80
2019-03-17T15:53:12.363Z,1.20
2019-03-17T15:55:42.827Z,1.03
2019-03-17T15:58:13.371Z,1.00
2019-03-17T16:00:43.863Z,0.90
2019-03-17T16:03:14.379Z,0.90
2019-03-17T16:05:44.800Z,0.90
2019-03-17T16:08:15.227Z,0.90
2019-03-17T16:10:45.655Z,1.00
2019-03-17T16:13:16.182Z,1.33
2019-03-17T16:15:47.227Z,0.90
2019-03-17T16:18:17.687Z,1.00
2019-03-17T16:20:48.076Z,1.13
2019-03-17T16:23:18.605Z,1.00
2019-03-17T16:25:50.603Z,1.10
2019-03-17T16:28:21.225Z,0.80
2019-03-17T16:30:51.822Z,1.00
2019-03-17T16:33:22.292Z,1.00
2019-03-17T16:35:52.965Z,1.23
2019-03-17T16:38:23.423Z,1.03
2019-03-17T16:40:53.849Z,1.70
2019-03-17T16:43:25.299Z,1.10
2019-03-17T16:45:55.829Z,1.50
2019-03-17T16:48:26.392Z,1.67
2019-03-17T16:50:56.902Z,1.47
2019-03-17T16:53:27.423Z,1.60
2019-03-17T16:55:57.843Z,1.37
2019-03-17T16:58:28.321Z,1.20
2019-03-17T17:00:58.706Z,1.20
2019-03-17T17:03:29.362Z,1.13
2019-03-17T17:05:59.756Z,1.70
2019-03-17T17:08:30.318Z,1.17
2019-03-17T17:11:00.899Z,1.20
2019-03-17T17:13:31.554Z,1.30
2019-03-17T17:16:02.259Z,1.77
2019-03-17T17:18:32.740Z,1.70
2019-03-17T17:21:03.270Z,1.70
2019-03-17T17:23:34.022Z,1.70
2019-03-17T17:26:04.409Z,1.60
2019-03-17T17:28:35.023Z,1.63
2019-03-17T17:31:05.521Z,2.17
2019-03-17T17:33:35.999Z,1.87
2019-03-17T17:36:06.421Z,1.50
2019-03-17T17:38:36.844Z,1.53
2019-03-17T17:41:07.477Z,1.47
2019-03-17T17:43:38.004Z,1.30
2019-03-17T17:46:08.534Z,1.30
2019-03-17T17:48:39.065Z,1.70
2019-03-17T17:51:09.493Z,2.00
2019-03-17T17:53:40.047Z,1.37
2019-03-17T17:56:10.549Z,1.70
2019-03-17T17:58:41.007Z,1.40
2019-03-17T18:01:11.736Z,1.20
2019-03-17T18:03:51.066Z,1.47
2019-03-17T18:06:14.408Z,2.30
2019-03-17T18:08:44.833Z,1.70
2019-03-17T18:11:15.259Z,1.40
2019-03-17T18:13:46.000Z,1.60
2019-03-17T18:16:16.630Z,1.60
2019-03-17T18:18:47.079Z,1.70
2019-03-17T18:21:17.482Z,1.57
2019-03-17T18:23:47.907Z,1.40
2019-03-17T18:26:18.333Z,1.53
2019-03-17T18:28:49.071Z,1.83
2019-03-17T18:31:19.504Z,2.00
2019-03-17T18:33:51.033Z,1.87
2019-03-17T18:36:21.473Z,2.07
2019-03-17T18:38:51.938Z,2.00
2019-03-17T18:41:22.331Z,2.63
2019-03-17T18:43:52.768Z,1.90
2019-03-17T18:46:23.186Z,1.83
2019-03-17T18:48:53.640Z,2.13
2019-03-17T18:51:25.266Z,1.90
2019-03-17T18:53:55.796Z,1.53
2019-03-17T18:56:26.226Z,1.70
2019-03-17T18:58:56.699Z,1.93
2019-03-17T19:01:27.183Z,2.37
2019-03-17T19:03:57.595Z,1.73
2019-03-17T19:06:28.076Z,2.00
2019-03-17T19:08:58.562Z,1.80
2019-03-17T19:11:29.055Z,1.67
2019-03-17T19:13:59.746Z,2.30
2019-03-17T19:16:30.251Z,1.90
2019-03-17T19:19:00.679Z,2.07
2019-03-17T19:21:31.105Z,1.90
2019-03-17T19:24:01.523Z,1.50
2019-03-17T19:26:31.961Z,2.00
2019-03-17T19:29:02.351Z,2.03
2019-03-17T19:31:32.916Z,1.87
2019-03-17T19:34:03.348Z,3.20
2019-03-17T19:36:33.828Z,2.60
2019-03-17T19:39:04.888Z,3.20
2019-03-17T19:41:35.481Z,2.60
2019-03-17T19:44:06.056Z,3.17
2019-03-17T19:46:36.503Z,2.40
2019-03-17T19:49:06.931Z,3.33
2019-03-17T19:51:37.357Z,3.37
2019-03-17T19:54:07.811Z,2.63
2019-03-17T19:56:38.244Z,2.40
2019-03-17T19:59:08.730Z,2.30
2019-03-17T20:01:39.292Z,2.57
2019-03-17T20:04:13.178Z,2.90
2019-03-17T20:06:43.690Z,2.83
2019-03-17T20:09:14.182Z,2.93
2019-03-17T20:11:44.714Z,3.33
2019-03-17T20:14:15.410Z,2.90
2019-03-17T20:16:45.995Z,3.13
2019-03-17T20:19:16.531Z,3.43
2019-03-17T20:21:47.159Z,4.10
2019-03-17T20:24:17.620Z,3.57
2019-03-17T20:26:48.099Z,2.87
2019-03-17T20:29:20.018Z,2.63
2019-03-17T20:31:50.451Z,2.37
2019-03-17T20:34:20.892Z,3.33
2019-03-17T20:36:51.928Z,3.17
2019-03-17T20:39:22.543Z,2.77
2019-03-17T20:41:52.996Z,3.43
2019-03-17T20:44:24.275Z,4.07
2019-03-17T20:46:54.764Z,3.00
2019-03-17T20:49:25.182Z,3.27
2019-03-17T20:51:56.625Z,3.60
2019-03-17T20:54:27.687Z,2.87
2019-03-17T20:57:00.604Z,3.60
2019-03-17T20:59:30.505Z,3.40
2019-03-17T21:02:01.050Z,2.60
2019-03-17T21:04:33.619Z,2.50
2019-03-17T21:07:06.437Z,2.97
2019-03-17T21:09:36.875Z,2.40
2019-03-17T21:12:07.345Z,2.47
2019-03-17T21:14:38.087Z,2.73
2019-03-17T21:17:08.835Z,2.20
2019-03-17T21:19:40.668Z,2.60
2019-03-17T21:22:11.164Z,2.70
2019-03-17T21:24:41.690Z,2.50
2019-03-17T21:27:12.146Z,3.23
2019-03-17T21:29:42.726Z,2.37
2019-03-17T21:32:13.207Z,2.67
2019-03-17T21:34:43.682Z,2.97
2019-03-17T21:37:14.132Z,4.03
2019-03-17T21:39:44.632Z,2.60
2019-03-17T21:42:15.235Z,2.90
2019-03-17T21:44:45.744Z,3.00
2019-03-17T21:47:16.175Z,2.87
2019-03-17T21:49:46.574Z,3.10
2019-03-17T21:52:17.006Z,3.50
2019-03-17T21:54:47.428Z,3.13
2019-03-17T21:57:17.857Z,3.57
2019-03-17T21:59:48.669Z,3.43
2019-03-17T22:02:19.125Z,3.57
2019-03-17T22:04:49.545Z,3.10
2019-03-17T22:07:19.972Z,3.73
2019-03-17T22:09:50.401Z,3.70
2019-03-17T22:12:20.878Z,2.80
2019-03-17T22:14:51.440Z,2.53
2019-03-17T22:17:21.962Z,2.90
2019-03-17T22:19:52.460Z,2.47
2019-03-17T22:22:23.976Z,4.13
2019-03-17T22:24:54.566Z,3.47
2019-03-17T22:27:26.359Z,3.30
2019-03-17T22:29:56.831Z,2.53
2019-03-17T22:32:27.420Z,3.17
2019-03-17T22:34:57.871Z,2.60
2019-03-17T22:37:28.377Z,3.47
2019-03-17T22:39:58.803Z,3.03
2019-03-17T22:42:29.330Z,3.50
2019-03-17T22:44:59.946Z,3.37
2019-03-17T22:47:30.455Z,3.53
2019-03-17T22:50:00.928Z,3.63
2019-03-17T22:52:31.449Z,3.17
2019-03-17T22:55:01.977Z,2.57
2019-03-17T22:57:32.403Z,3.03
2019-03-17T23:00:02.836Z,3.87
2019-03-17T23:02:33.872Z,3.07
2019-03-17T23:05:04.506Z,3.00
2019-03-17T23:07:34.935Z,2.47
2019-03-17T23:10:05.458Z,2.57
2019-03-17T23:12:35.995Z,3.50
2019-03-17T23:15:06.625Z,4.33
2019-03-17T23:17:37.125Z,4.37
2019-03-17T23:20:08.591Z,3.80
2019-03-17T23:22:39.039Z,3.93
2019-03-17T23:25:09.944Z,2.60
2019-03-17T23:27:40.751Z,2.77
2019-03-17T23:30:12.107Z,2.73
2019-03-17T23:32:42.647Z,3.57
2019-03-17T23:35:13.167Z,3.27
2019-03-17T23:37:43.646Z,2.63
2019-03-17T23:40:14.446Z,3.37
2019-03-17T23:42:44.906Z,3.00
2019-03-17T23:45:15.536Z,4.50
2019-03-17T23:47:45.953Z,3.40
2019-03-17T23:50:16.439Z,3.40
2019-03-17T23:52:46.919Z,3.67
2019-03-17T23:55:17.554Z,4.70
2019-03-17T23:57:47.994Z,3.70
